sensor_id;sensor_type;location;lat;lon;timestamp;P1;durP1;ratioP1;P2;durP2;ratioP2
42104;SDS011;61464;51.472;5.712;2022-08-21T00:00:12;11.27;;;7.35;;
42104;SDS011;61464;51.472;5.712;2022-08-21T00:02:46;14.63;;;7.38;;
42104;SDS011;61464;51.472;5.712;2022-08-21T00:05:21;16.13;;;7.43;;
42104;SDS011;61464;51.472;5.712;2022-08-21T00:07:48;13.07;;;8.32;;
42104;SDS011;61464;51.472;5.712;2022-08-21T00:10:14;16.48;;;8.75;;
42104;SDS011;61464;51.472;5.712;2022-08-21T00:12:40;14.13;;;8.57;;
42104;SDS011;61464;51.472;5.712;2022-08-21T00:15:07;19.17;;;11.43;;
42104;SDS011;61464;51.472;5.712;2022-08-21T00:17:36;21.38;;;13.43;;
42104;SDS011;61464;51.472;5.712;2022-08-21T00:20:03;15.95;;;10.90;;
42104;SDS011;61464;51.472;5.712;2022-08-21T00:22:33;16.13;;;10.02;;
42104;SDS011;61464;51.472;5.712;2022-08-21T00:25:00;15.07;;;9.45;;
42104;SDS011;61464;51.472;5.712;2022-08-21T00:27:27;18.48;;;8.65;;
42104;SDS011;61464;51.472;5.712;2022-08-21T00:29:53;13.02;;;8.50;;
42104;SDS011;61464;51.472;5.712;2022-08-21T00:32:21;13.50;;;9.18;;
42104;SDS011;61464;51.472;5.712;2022-08-21T00:34:49;15.30;;;9.18;;
42104;SDS011;61464;51.472;5.712;2022-08-21T00:37:15;15.27;;;9.55;;
42104;SDS011;61464;51.472;5.712;2022-08-21T00:39:41;16.70;;;10.65;;
42104;SDS011;61464;51.472;5.712;2022-08-21T00:42:07;19.65;;;10.88;;
42104;SDS011;61464;51.472;5.712;2022-08-21T00:44:35;15.50;;;10.18;;
42104;SDS011;61464;51.472;5.712;2022-08-21T00:47:01;14.73;;;10.90;;
42104;SDS011;61464;51.472;5.712;2022-08-21T00:49:26;15.38;;;10.77;;
42104;SDS011;61464;51.472;5.712;2022-08-21T00:51:57;22.25;;;11.77;;
42104;SDS011;61464;51.472;5.712;2022-08-21T00:54:26;19.95;;;11.52;;
42104;SDS011;61464;51.472;5.712;2022-08-21T00:56:56;17.73;;;11.73;;
42104;SDS011;61464;51.472;5.712;2022-08-21T00:59:26;19.08;;;11.43;;
42104;SDS011;61464;51.472;5.712;2022-08-21T01:01:55;16.55;;;10.65;;
42104;SDS011;61464;51.472;5.712;2022-08-21T01:04:22;18.38;;;11.60;;
42104;SDS011;61464;51.472;5.712;2022-08-21T01:06:48;15.73;;;10.70;;
42104;SDS011;61464;51.472;5.712;2022-08-21T01:09:16;15.52;;;10.32;;
42104;SDS011;61464;51.472;5.712;2022-08-21T01:11:43;20.05;;;10.20;;
42104;SDS011;61464;51.472;5.712;2022-08-21T01:14:10;16.98;;;10.57;;
42104;SDS011;61464;51.472;5.712;2022-08-21T01:16:39;13.65;;;10.80;;
42104;SDS011;61464;51.472;5.712;2022-08-21T01:19:09;18.50;;;10.40;;
42104;SDS011;61464;51.472;5.712;2022-08-21T01:21:36;17.77;;;10.35;;
42104;SDS011;61464;51.472;5.712;2022-08-21T01:24:02;15.15;;;10.38;;
42104;SDS011;61464;51.472;5.712;2022-08-21T01:26:30;21.38;;;10.50;;
42104;SDS011;61464;51.472;5.712;2022-08-21T01:31:57;16.42;;;10.75;;
42104;SDS011;61464;51.472;5.712;2022-08-21T01:34:28;17.17;;;10.98;;
42104;SDS011;61464;51.472;5.712;2022-08-21T01:36:54;16.98;;;11.23;;
42104;SDS011;61464;51.472;5.712;2022-08-21T01:39:20;15.45;;;10.77;;
42104;SDS011;61464;51.472;5.712;2022-08-21T01:41:46;17.90;;;11.70;;
42104;SDS011;61464;51.472;5.712;2022-08-21T01:44:11;21.77;;;11.57;;
42104;SDS011;61464;51.472;5.712;2022-08-21T01:46:37;16.48;;;10.73;;
42104;SDS011;61464;51.472;5.712;2022-08-21T01:49:03;16.83;;;10.82;;
42104;SDS011;61464;51.472;5.712;2022-08-21T01:51:29;12.27;;;10.10;;
42104;SDS011;61464;51.472;5.712;2022-08-21T01:53:55;16.65;;;10.15;;
42104;SDS011;61464;51.472;5.712;2022-08-21T01:56:21;17.15;;;9.65;;
42104;SDS011;61464;51.472;5.712;2022-08-21T01:58:47;17.00;;;10.43;;
42104;SDS011;61464;51.472;5.712;2022-08-21T02:01:13;15.30;;;10.32;;
42104;SDS011;61464;51.472;5.712;2022-08-21T02:03:40;18.35;;;10.07;;
42104;SDS011;61464;51.472;5.712;2022-08-21T02:06:07;13.02;;;9.45;;
42104;SDS011;61464;51.472;5.712;2022-08-21T02:08:38;17.17;;;10.25;;
42104;SDS011;61464;51.472;5.712;2022-08-21T02:11:05;13.43;;;9.25;;
42104;SDS011;61464;51.472;5.712;2022-08-21T02:13:31;12.77;;;8.60;;
42104;SDS011;61464;51.472;5.712;2022-08-21T02:15:57;15.20;;;8.98;;
42104;SDS011;61464;51.472;5.712;2022-08-21T02:18:22;14.90;;;9.95;;
42104;SDS011;61464;51.472;5.712;2022-08-21T02:20:48;15.80;;;9.65;;
42104;SDS011;61464;51.472;5.712;2022-08-21T02:23:14;13.75;;;10.23;;
42104;SDS011;61464;51.472;5.712;2022-08-21T02:25:41;18.45;;;10.05;;
42104;SDS011;61464;51.472;5.712;2022-08-21T02:28:09;15.90;;;9.65;;
42104;SDS011;61464;51.472;5.712;2022-08-21T02:30:40;18.55;;;10.15;;
42104;SDS011;61464;51.472;5.712;2022-08-21T02:33:10;16.13;;;10.13;;
42104;SDS011;61464;51.472;5.712;2022-08-21T02:35:37;15.10;;;10.10;;
42104;SDS011;61464;51.472;5.712;2022-08-21T02:38:08;13.77;;;10.13;;
42104;SDS011;61464;51.472;5.712;2022-08-21T02:40:39;15.50;;;10.20;;
42104;SDS011;61464;51.472;5.712;2022-08-21T02:43:07;15.95;;;10.82;;
42104;SDS011;61464;51.472;5.712;2022-08-21T02:45:34;16.77;;;10.10;;
42104;SDS011;61464;51.472;5.712;2022-08-21T02:48:03;14.30;;;10.68;;
42104;SDS011;61464;51.472;5.712;2022-08-21T02:50:38;18.17;;;11.20;;
42104;SDS011;61464;51.472;5.712;2022-08-21T02:53:08;16.77;;;10.70;;
42104;SDS011;61464;51.472;5.712;2022-08-21T02:55:36;14.77;;;11.57;;
42104;SDS011;61464;51.472;5.712;2022-08-21T02:58:04;17.08;;;12.15;;
42104;SDS011;61464;51.472;5.712;2022-08-21T03:00:33;18.58;;;11.40;;
42104;SDS011;61464;51.472;5.712;2022-08-21T03:03:01;17.83;;;12.70;;
42104;SDS011;61464;51.472;5.712;2022-08-21T03:05:30;20.40;;;12.05;;
42104;SDS011;61464;51.472;5.712;2022-08-21T03:07:58;17.95;;;12.50;;
42104;SDS011;61464;51.472;5.712;2022-08-21T03:10:27;19.33;;;13.27;;
42104;SDS011;61464;51.472;5.712;2022-08-21T03:12:55;20.83;;;12.75;;
42104;SDS011;61464;51.472;5.712;2022-08-21T03:15:22;22.08;;;12.07;;
42104;SDS011;61464;51.472;5.712;2022-08-21T03:17:50;17.40;;;12.63;;
42104;SDS011;61464;51.472;5.712;2022-08-21T03:20:18;18.75;;;12.73;;
42104;SDS011;61464;51.472;5.712;2022-08-21T03:22:47;19.23;;;12.77;;
42104;SDS011;61464;51.472;5.712;2022-08-21T03:25:13;19.48;;;13.07;;
42104;SDS011;61464;51.472;5.712;2022-08-21T03:27:39;19.40;;;13.02;;
42104;SDS011;61464;51.472;5.712;2022-08-21T03:30:05;18.20;;;12.75;;
42104;SDS011;61464;51.472;5.712;2022-08-21T03:32:33;18.45;;;13.30;;
42104;SDS011;61464;51.472;5.712;2022-08-21T03:35:01;20.52;;;13.52;;
42104;SDS011;61464;51.472;5.712;2022-08-21T03:37:28;20.58;;;12.13;;
42104;SDS011;61464;51.472;5.712;2022-08-21T03:39:55;19.67;;;12.82;;
42104;SDS011;61464;51.472;5.712;2022-08-21T03:42:21;20.88;;;14.02;;
42104;SDS011;61464;51.472;5.712;2022-08-21T03:44:47;26.27;;;13.68;;
42104;SDS011;61464;51.472;5.712;2022-08-21T03:47:13;17.77;;;12.85;;
42104;SDS011;61464;51.472;5.712;2022-08-21T03:49:39;20.95;;;13.93;;
42104;SDS011;61464;51.472;5.712;2022-08-21T03:52:06;21.90;;;13.93;;
42104;SDS011;61464;51.472;5.712;2022-08-21T03:54:32;20.80;;;13.48;;
42104;SDS011;61464;51.472;5.712;2022-08-21T03:56:58;20.77;;;13.38;;
42104;SDS011;61464;51.472;5.712;2022-08-21T03:59:24;21.52;;;13.80;;
42104;SDS011;61464;51.472;5.712;2022-08-21T04:01:51;18.00;;;12.93;;
42104;SDS011;61464;51.472;5.712;2022-08-21T04:04:23;22.77;;;13.13;;
42104;SDS011;61464;51.472;5.712;2022-08-21T04:06:49;20.88;;;12.73;;
42104;SDS011;61464;51.472;5.712;2022-08-21T04:09:15;20.48;;;12.90;;
42104;SDS011;61464;51.472;5.712;2022-08-21T04:11:42;19.67;;;12.07;;
42104;SDS011;61464;51.472;5.712;2022-08-21T04:14:08;20.83;;;12.38;;
42104;SDS011;61464;51.472;5.712;2022-08-21T04:16:34;19.13;;;12.25;;
42104;SDS011;61464;51.472;5.712;2022-08-21T04:19:00;18.02;;;11.98;;
42104;SDS011;61464;51.472;5.712;2022-08-21T04:21:26;18.20;;;11.98;;
42104;SDS011;61464;51.472;5.712;2022-08-21T04:23:54;18.10;;;12.75;;
42104;SDS011;61464;51.472;5.712;2022-08-21T04:26:20;24.08;;;12.85;;
42104;SDS011;61464;51.472;5.712;2022-08-21T04:28:46;17.83;;;12.48;;
42104;SDS011;61464;51.472;5.712;2022-08-21T04:31:12;17.65;;;12.23;;
42104;SDS011;61464;51.472;5.712;2022-08-21T04:33:38;21.50;;;12.55;;
42104;SDS011;61464;51.472;5.712;2022-08-21T04:36:04;23.27;;;12.82;;
42104;SDS011;61464;51.472;5.712;2022-08-21T04:38:31;16.05;;;11.27;;
42104;SDS011;61464;51.472;5.712;2022-08-21T04:40:58;17.05;;;11.98;;
42104;SDS011;61464;51.472;5.712;2022-08-21T04:43:24;19.25;;;13.05;;
42104;SDS011;61464;51.472;5.712;2022-08-21T04:45:50;21.75;;;12.15;;
42104;SDS011;61464;51.472;5.712;2022-08-21T04:48:19;18.52;;;12.30;;
42104;SDS011;61464;51.472;5.712;2022-08-21T04:50:49;17.58;;;13.27;;
42104;SDS011;61464;51.472;5.712;2022-08-21T04:56:09;20.45;;;11.10;;
42104;SDS011;61464;51.472;5.712;2022-08-21T04:58:52;19.33;;;10.60;;
42104;SDS011;61464;51.472;5.712;2022-08-21T05:01:21;21.23;;;11.35;;
42104;SDS011;61464;51.472;5.712;2022-08-21T05:03:52;19.45;;;11.05;;
42104;SDS011;61464;51.472;5.712;2022-08-21T05:06:22;21.65;;;10.55;;
42104;SDS011;61464;51.472;5.712;2022-08-21T05:08:49;17.23;;;9.95;;
42104;SDS011;61464;51.472;5.712;2022-08-21T05:11:18;15.27;;;10.05;;
42104;SDS011;61464;51.472;5.712;2022-08-21T05:13:45;15.07;;;9.32;;
42104;SDS011;61464;51.472;5.712;2022-08-21T05:16:11;24.08;;;9.82;;
42104;SDS011;61464;51.472;5.712;2022-08-21T05:18:37;17.35;;;10.30;;
42104;SDS011;61464;51.472;5.712;2022-08-21T05:21:03;15.02;;;9.02;;
42104;SDS011;61464;51.472;5.712;2022-08-21T05:23:29;18.27;;;9.13;;
42104;SDS011;61464;51.472;5.712;2022-08-21T05:25:55;14.18;;;8.55;;
42104;SDS011;61464;51.472;5.712;2022-08-21T05:28:22;16.52;;;8.93;;
42104;SDS011;61464;51.472;5.712;2022-08-21T05:30:48;18.08;;;9.02;;
42104;SDS011;61464;51.472;5.712;2022-08-21T05:33:14;11.02;;;7.68;;
42104;SDS011;61464;51.472;5.712;2022-08-21T05:35:40;14.95;;;7.35;;
42104;SDS011;61464;51.472;5.712;2022-08-21T05:38:06;15.60;;;8.15;;
42104;SDS011;61464;51.472;5.712;2022-08-21T05:40:32;16.55;;;7.15;;
42104;SDS011;61464;51.472;5.712;2022-08-21T05:42:58;13.13;;;7.25;;
42104;SDS011;61464;51.472;5.712;2022-08-21T05:45:26;10.77;;;6.68;;
42104;SDS011;61464;51.472;5.712;2022-08-21T05:47:55;15.60;;;6.88;;
42104;SDS011;61464;51.472;5.712;2022-08-21T05:50:21;12.40;;;6.32;;
42104;SDS011;61464;51.472;5.712;2022-08-21T05:52:47;10.98;;;6.57;;
42104;SDS011;61464;51.472;5.712;2022-08-21T05:55:14;12.65;;;6.38;;
42104;SDS011;61464;51.472;5.712;2022-08-21T05:57:40;14.30;;;6.90;;
42104;SDS011;61464;51.472;5.712;2022-08-21T06:00:06;17.77;;;7.05;;
42104;SDS011;61464;51.472;5.712;2022-08-21T06:02:37;13.65;;;6.65;;
42104;SDS011;61464;51.472;5.712;2022-08-21T06:05:04;14.18;;;6.43;;
42104;SDS011;61464;51.472;5.712;2022-08-21T06:07:31;12.18;;;6.63;;
42104;SDS011;61464;51.472;5.712;2022-08-21T06:09:57;12.18;;;6.22;;
42104;SDS011;61464;51.472;5.712;2022-08-21T06:12:23;14.75;;;6.53;;
42104;SDS011;61464;51.472;5.712;2022-08-21T06:14:49;11.23;;;5.97;;
42104;SDS011;61464;51.472;5.712;2022-08-21T06:17:16;10.70;;;5.18;;
42104;SDS011;61464;51.472;5.712;2022-08-21T06:19:43;8.80;;;4.53;;
42104;SDS011;61464;51.472;5.712;2022-08-21T06:22:09;8.07;;;4.15;;
42104;SDS011;61464;51.472;5.712;2022-08-21T06:24:35;11.23;;;5.07;;
42104;SDS011;61464;51.472;5.712;2022-08-21T06:27:05;14.23;;;5.05;;
42104;SDS011;61464;51.472;5.712;2022-08-21T06:29:32;10.30;;;5.00;;
42104;SDS011;61464;51.472;5.712;2022-08-21T06:31:59;10.00;;;4.72;;
42104;SDS011;61464;51.472;5.712;2022-08-21T06:34:27;12.13;;;5.47;;
42104;SDS011;61464;51.472;5.712;2022-08-21T06:36:52;13.25;;;5.30;;
42104;SDS011;61464;51.472;5.712;2022-08-21T06:39:18;11.88;;;5.32;;
42104;SDS011;61464;51.472;5.712;2022-08-21T06:41:44;14.55;;;5.72;;
42104;SDS011;61464;51.472;5.712;2022-08-21T06:44:10;12.77;;;4.70;;
42104;SDS011;61464;51.472;5.712;2022-08-21T06:46:36;8.20;;;4.60;;
42104;SDS011;61464;51.472;5.712;2022-08-21T06:49:02;16.27;;;4.90;;
42104;SDS011;61464;51.472;5.712;2022-08-21T06:51:28;12.05;;;4.60;;
42104;SDS011;61464;51.472;5.712;2022-08-21T06:53:54;12.80;;;4.30;;
42104;SDS011;61464;51.472;5.712;2022-08-21T06:56:20;13.15;;;4.53;;
42104;SDS011;61464;51.472;5.712;2022-08-21T06:58:46;11.32;;;3.60;;
42104;SDS011;61464;51.472;5.712;2022-08-21T07:01:12;12.10;;;3.63;;
42104;SDS011;61464;51.472;5.712;2022-08-21T07:03:39;10.02;;;3.78;;
42104;SDS011;61464;51.472;5.712;2022-08-21T07:06:08;9.63;;;3.80;;
42104;SDS011;61464;51.472;5.712;2022-08-21T07:08:36;12.85;;;3.97;;
42104;SDS011;61464;51.472;5.712;2022-08-21T07:11:04;11.73;;;4.00;;
42104;SDS011;61464;51.472;5.712;2022-08-21T07:13:45;10.70;;;4.05;;
42104;SDS011;61464;51.472;5.712;2022-08-21T07:16:12;12.05;;;4.47;;
42104;SDS011;61464;51.472;5.712;2022-08-21T07:18:38;12.80;;;4.07;;
42104;SDS011;61464;51.472;5.712;2022-08-21T07:21:04;14.30;;;4.80;;
42104;SDS011;61464;51.472;5.712;2022-08-21T07:23:33;11.63;;;4.47;;
42104;SDS011;61464;51.472;5.712;2022-08-21T07:26:10;17.20;;;4.90;;
42104;SDS011;61464;51.472;5.712;2022-08-21T07:28:36;12.20;;;4.97;;
42104;SDS011;61464;51.472;5.712;2022-08-21T07:31:03;17.42;;;4.45;;
42104;SDS011;61464;51.472;5.712;2022-08-21T07:33:31;18.85;;;4.95;;
42104;SDS011;61464;51.472;5.712;2022-08-21T07:35:59;14.60;;;4.28;;
42104;SDS011;61464;51.472;5.712;2022-08-21T07:38:26;11.38;;;4.95;;
42104;SDS011;61464;51.472;5.712;2022-08-21T07:40:52;14.52;;;4.43;;
42104;SDS011;61464;51.472;5.712;2022-08-21T07:43:21;19.38;;;5.70;;
42104;SDS011;61464;51.472;5.712;2022-08-21T07:45:47;13.18;;;4.65;;
42104;SDS011;61464;51.472;5.712;2022-08-21T07:48:16;11.75;;;4.30;;
42104;SDS011;61464;51.472;5.712;2022-08-21T07:50:42;18.10;;;4.78;;
42104;SDS011;61464;51.472;5.712;2022-08-21T07:53:08;11.38;;;3.67;;
42104;SDS011;61464;51.472;5.712;2022-08-21T07:55:34;16.02;;;3.65;;
42104;SDS011;61464;51.472;5.712;2022-08-21T07:58:00;11.10;;;2.95;;
42104;SDS011;61464;51.472;5.712;2022-08-21T08:00:27;10.52;;;3.15;;
42104;SDS011;61464;51.472;5.712;2022-08-21T08:02:54;12.63;;;3.35;;
42104;SDS011;61464;51.472;5.712;2022-08-21T08:05:21;11.93;;;2.75;;
42104;SDS011;61464;51.472;5.712;2022-08-21T08:07:51;11.68;;;3.45;;
42104;SDS011;61464;51.472;5.712;2022-08-21T08:10:17;13.70;;;2.95;;
42104;SDS011;61464;51.472;5.712;2022-08-21T08:12:44;16.05;;;2.67;;
42104;SDS011;61464;51.472;5.712;2022-08-21T08:15:12;9.52;;;2.40;;
42104;SDS011;61464;51.472;5.712;2022-08-21T08:17:41;6.78;;;2.28;;
42104;SDS011;61464;51.472;5.712;2022-08-21T08:20:07;12.52;;;2.58;;
42104;SDS011;61464;51.472;5.712;2022-08-21T08:22:37;14.00;;;3.05;;
42104;SDS011;61464;51.472;5.712;2022-08-21T08:25:05;8.75;;;2.88;;
42104;SDS011;61464;51.472;5.712;2022-08-21T08:27:33;7.88;;;2.53;;
42104;SDS011;61464;51.472;5.712;2022-08-21T08:29:59;10.25;;;2.08;;
42104;SDS011;61464;51.472;5.712;2022-08-21T08:32:25;8.52;;;2.58;;
42104;SDS011;61464;51.472;5.712;2022-08-21T08:34:51;8.43;;;2.28;;
42104;SDS011;61464;51.472;5.712;2022-08-21T08:37:17;8.75;;;2.25;;
42104;SDS011;61464;51.472;5.712;2022-08-21T08:39:45;7.57;;;2.40;;
42104;SDS011;61464;51.472;5.712;2022-08-21T08:42:13;8.68;;;1.92;;
42104;SDS011;61464;51.472;5.712;2022-08-21T08:47:38;9.60;;;2.30;;
42104;SDS011;61464;51.472;5.712;2022-08-21T08:50:24;12.77;;;2.35;;
42104;SDS011;61464;51.472;5.712;2022-08-21T08:53:14;8.40;;;1.65;;
42104;SDS011;61464;51.472;5.712;2022-08-21T08:55:52;5.40;;;1.35;;
42104;SDS011;61464;51.472;5.712;2022-08-21T08:58:28;8.55;;;1.65;;
42104;SDS011;61464;51.472;5.712;2022-08-21T09:01:01;4.85;;;1.38;;
42104;SDS011;61464;51.472;5.712;2022-08-21T09:03:35;8.32;;;1.73;;
42104;SDS011;61464;51.472;5.712;2022-08-21T09:06:11;7.88;;;1.88;;
42104;SDS011;61464;51.472;5.712;2022-08-21T09:26:25;7.43;;;1.30;;
42104;SDS011;61464;51.472;5.712;2022-08-21T09:29:06;6.25;;;1.05;;
42104;SDS011;61464;51.472;5.712;2022-08-21T09:31:36;10.20;;;1.40;;
42104;SDS011;61464;51.472;5.712;2022-08-21T09:34:06;4.82;;;1.13;;
42104;SDS011;61464;51.472;5.712;2022-08-21T09:39:09;6.43;;;1.30;;
42104;SDS011;61464;51.472;5.712;2022-08-21T09:41:37;7.57;;;1.63;;
42104;SDS011;61464;51.472;5.712;2022-08-21T09:44:05;9.93;;;1.48;;
42104;SDS011;61464;51.472;5.712;2022-08-21T09:46:33;5.32;;;1.30;;
42104;SDS011;61464;51.472;5.712;2022-08-21T09:49:01;8.07;;;2.00;;
42104;SDS011;61464;51.472;5.712;2022-08-21T09:51:30;6.88;;;1.85;;
42104;SDS011;61464;51.472;5.712;2022-08-21T09:59:29;7.93;;;1.50;;
42104;SDS011;61464;51.472;5.712;2022-08-21T10:01:58;8.30;;;1.55;;
42104;SDS011;61464;51.472;5.712;2022-08-21T10:04:28;9.25;;;1.60;;
42104;SDS011;61464;51.472;5.712;2022-08-21T10:07:09;11.13;;;1.50;;
42104;SDS011;61464;51.472;5.712;2022-08-21T10:09:37;5.13;;;0.90;;
42104;SDS011;61464;51.472;5.712;2022-08-21T10:17:44;7.22;;;1.63;;
42104;SDS011;61464;51.472;5.712;2022-08-21T10:26:11;10.65;;;2.28;;
42104;SDS011;61464;51.472;5.712;2022-08-21T10:43:51;7.35;;;1.45;;
42104;SDS011;61464;51.472;5.712;2022-08-21T10:49:48;5.55;;;1.70;;
42104;SDS011;61464;51.472;5.712;2022-08-21T10:55:16;9.07;;;1.40;;
42104;SDS011;61464;51.472;5.712;2022-08-21T10:58:02;5.90;;;1.45;;
42104;SDS011;61464;51.472;5.712;2022-08-21T11:00:45;6.70;;;1.50;;
42104;SDS011;61464;51.472;5.712;2022-08-21T11:06:11;7.25;;;1.80;;
42104;SDS011;61464;51.472;5.712;2022-08-21T11:08:43;6.57;;;1.40;;
42104;SDS011;61464;51.472;5.712;2022-08-21T11:11:18;8.00;;;1.42;;
42104;SDS011;61464;51.472;5.712;2022-08-21T11:14:19;6.03;;;1.13;;
42104;SDS011;61464;51.472;5.712;2022-08-21T11:17:09;6.65;;;1.40;;
42104;SDS011;61464;51.472;5.712;2022-08-21T11:25:14;6.35;;;1.30;;
42104;SDS011;61464;51.472;5.712;2022-08-21T11:27:50;6.53;;;1.40;;
42104;SDS011;61464;51.472;5.712;2022-08-21T11:30:29;6.03;;;1.40;;
42104;SDS011;61464;51.472;5.712;2022-08-21T11:33:26;4.40;;;1.40;;
42104;SDS011;61464;51.472;5.712;2022-08-21T11:36:20;11.85;;;1.90;;
42104;SDS011;61464;51.472;5.712;2022-08-21T11:42:36;5.95;;;1.55;;
42104;SDS011;61464;51.472;5.712;2022-08-21T11:45:38;6.65;;;1.80;;
42104;SDS011;61464;51.472;5.712;2022-08-21T11:51:00;7.90;;;2.03;;
42104;SDS011;61464;51.472;5.712;2022-08-21T11:54:02;7.65;;;1.80;;
42104;SDS011;61464;51.472;5.712;2022-08-21T11:59:52;6.47;;;1.77;;
42104;SDS011;61464;51.472;5.712;2022-08-21T12:02:42;7.43;;;1.60;;
42104;SDS011;61464;51.472;5.712;2022-08-21T12:05:23;10.93;;;2.10;;
42104;SDS011;61464;51.472;5.712;2022-08-21T12:08:26;7.50;;;1.55;;
42104;SDS011;61464;51.472;5.712;2022-08-21T12:11:04;8.90;;;1.90;;
42104;SDS011;61464;51.472;5.712;2022-08-21T12:19:04;5.10;;;1.48;;
42104;SDS011;61464;51.472;5.712;2022-08-21T12:21:49;7.78;;;1.60;;
42104;SDS011;61464;51.472;5.712;2022-08-21T12:24:32;5.80;;;1.35;;
42104;SDS011;61464;51.472;5.712;2022-08-21T12:27:26;4.53;;;1.48;;
42104;SDS011;61464;51.472;5.712;2022-08-21T12:30:00;5.35;;;1.50;;
42104;SDS011;61464;51.472;5.712;2022-08-21T12:32:46;10.23;;;1.50;;
42104;SDS011;61464;51.472;5.712;2022-08-21T12:35:45;9.25;;;1.58;;
42104;SDS011;61464;51.472;5.712;2022-08-21T12:40:54;8.32;;;1.80;;
42104;SDS011;61464;51.472;5.712;2022-08-21T12:43:43;6.88;;;2.10;;
42104;SDS011;61464;51.472;5.712;2022-08-21T12:46:27;5.13;;;1.58;;
42104;SDS011;61464;51.472;5.712;2022-08-21T12:49:26;4.65;;;1.50;;
42104;SDS011;61464;51.472;5.712;2022-08-21T12:52:16;5.65;;;1.70;;
42104;SDS011;61464;51.472;5.712;2022-08-21T12:54:59;3.95;;;1.48;;
42104;SDS011;61464;51.472;5.712;2022-08-21T12:57:26;6.93;;;1.70;;
42104;SDS011;61464;51.472;5.712;2022-08-21T12:59:59;4.07;;;1.55;;
42104;SDS011;61464;51.472;5.712;2022-08-21T13:02:31;9.25;;;2.10;;
42104;SDS011;61464;51.472;5.712;2022-08-21T13:05:05;4.78;;;1.50;;
42104;SDS011;61464;51.472;5.712;2022-08-21T13:07:34;9.15;;;2.22;;
42104;SDS011;61464;51.472;5.712;2022-08-21T13:10:06;8.27;;;2.00;;
42104;SDS011;61464;51.472;5.712;2022-08-21T13:12:48;6.97;;;1.77;;
42104;SDS011;61464;51.472;5.712;2022-08-21T13:15:15;6.35;;;1.88;;
42104;SDS011;61464;51.472;5.712;2022-08-21T13:17:54;5.65;;;1.70;;
42104;SDS011;61464;51.472;5.712;2022-08-21T13:20:27;5.80;;;1.55;;
42104;SDS011;61464;51.472;5.712;2022-08-21T13:23:00;8.30;;;1.67;;
42104;SDS011;61464;51.472;5.712;2022-08-21T13:25:29;7.18;;;1.95;;
42104;SDS011;61464;51.472;5.712;2022-08-21T13:28:07;5.47;;;1.55;;
42104;SDS011;61464;51.472;5.712;2022-08-21T13:30:46;6.75;;;1.73;;
42104;SDS011;61464;51.472;5.712;2022-08-21T13:33:19;5.80;;;1.77;;
42104;SDS011;61464;51.472;5.712;2022-08-21T13:35:51;5.70;;;1.80;;
42104;SDS011;61464;51.472;5.712;2022-08-21T13:41:06;6.22;;;1.50;;
42104;SDS011;61464;51.472;5.712;2022-08-21T13:43:44;5.45;;;1.83;;
42104;SDS011;61464;51.472;5.712;2022-08-21T13:46:22;8.95;;;1.80;;
42104;SDS011;61464;51.472;5.712;2022-08-21T13:48:53;6.22;;;1.63;;
42104;SDS011;61464;51.472;5.712;2022-08-21T13:51:20;5.00;;;1.92;;
42104;SDS011;61464;51.472;5.712;2022-08-21T13:53:49;5.50;;;1.60;;
42104;SDS011;61464;51.472;5.712;2022-08-21T13:58:58;6.05;;;1.75;;
42104;SDS011;61464;51.472;5.712;2022-08-21T14:01:36;10.45;;;2.10;;
42104;SDS011;61464;51.472;5.712;2022-08-21T14:04:36;8.80;;;2.15;;
42104;SDS011;61464;51.472;5.712;2022-08-21T14:07:19;8.00;;;1.90;;
42104;SDS011;61464;51.472;5.712;2022-08-21T14:09:56;6.22;;;1.92;;
42104;SDS011;61464;51.472;5.712;2022-08-21T14:12:44;6.53;;;2.30;;
42104;SDS011;61464;51.472;5.712;2022-08-21T14:15:24;9.70;;;2.40;;
42104;SDS011;61464;51.472;5.712;2022-08-21T14:17:53;7.78;;;2.20;;
42104;SDS011;61464;51.472;5.712;2022-08-21T14:20:34;6.53;;;2.10;;
42104;SDS011;61464;51.472;5.712;2022-08-21T14:23:01;9.35;;;2.10;;
42104;SDS011;61464;51.472;5.712;2022-08-21T14:25:29;6.88;;;1.95;;
42104;SDS011;61464;51.472;5.712;2022-08-21T14:28:11;7.68;;;2.15;;
42104;SDS011;61464;51.472;5.712;2022-08-21T14:31:15;7.13;;;1.80;;
42104;SDS011;61464;51.472;5.712;2022-08-21T14:33:46;8.10;;;2.20;;
42104;SDS011;61464;51.472;5.712;2022-08-21T14:36:13;9.82;;;2.22;;
42104;SDS011;61464;51.472;5.712;2022-08-21T14:38:39;5.57;;;1.92;;
42104;SDS011;61464;51.472;5.712;2022-08-21T14:41:16;9.13;;;2.33;;
42104;SDS011;61464;51.472;5.712;2022-08-21T14:43:47;4.10;;;1.73;;
42104;SDS011;61464;51.472;5.712;2022-08-21T14:46:23;8.25;;;1.70;;
42104;SDS011;61464;51.472;5.712;2022-08-21T14:48:52;7.80;;;2.00;;
42104;SDS011;61464;51.472;5.712;2022-08-21T14:51:18;5.25;;;1.88;;
42104;SDS011;61464;51.472;5.712;2022-08-21T14:53:44;5.72;;;2.08;;
42104;SDS011;61464;51.472;5.712;2022-08-21T14:56:11;8.63;;;2.20;;
42104;SDS011;61464;51.472;5.712;2022-08-21T14:58:39;8.85;;;2.47;;
42104;SDS011;61464;51.472;5.712;2022-08-21T15:01:08;6.95;;;2.00;;
42104;SDS011;61464;51.472;5.712;2022-08-21T15:03:37;7.93;;;1.70;;
42104;SDS011;61464;51.472;5.712;2022-08-21T15:06:03;9.27;;;2.33;;
42104;SDS011;61464;51.472;5.712;2022-08-21T15:08:31;8.55;;;2.17;;
42104;SDS011;61464;51.472;5.712;2022-08-21T15:10:58;7.57;;;2.15;;
42104;SDS011;61464;51.472;5.712;2022-08-21T15:13:27;7.47;;;2.08;;
42104;SDS011;61464;51.472;5.712;2022-08-21T15:15:55;10.20;;;2.58;;
42104;SDS011;61464;51.472;5.712;2022-08-21T15:18:25;10.13;;;2.13;;
42104;SDS011;61464;51.472;5.712;2022-08-21T15:20:53;5.45;;;1.92;;
42104;SDS011;61464;51.472;5.712;2022-08-21T15:23:19;7.30;;;2.08;;
42104;SDS011;61464;51.472;5.712;2022-08-21T15:25:47;8.18;;;2.38;;
42104;SDS011;61464;51.472;5.712;2022-08-21T15:28:15;7.30;;;2.15;;
42104;SDS011;61464;51.472;5.712;2022-08-21T15:30:42;8.07;;;2.10;;
42104;SDS011;61464;51.472;5.712;2022-08-21T15:33:10;14.40;;;2.58;;
42104;SDS011;61464;51.472;5.712;2022-08-21T15:35:37;8.13;;;2.80;;
42104;SDS011;61464;51.472;5.712;2022-08-21T15:38:04;8.40;;;2.80;;
42104;SDS011;61464;51.472;5.712;2022-08-21T15:40:30;8.25;;;2.60;;
42104;SDS011;61464;51.472;5.712;2022-08-21T15:42:57;7.65;;;2.80;;
42104;SDS011;61464;51.472;5.712;2022-08-21T15:45:26;9.80;;;2.53;;
42104;SDS011;61464;51.472;5.712;2022-08-21T15:47:53;7.45;;;2.20;;
42104;SDS011;61464;51.472;5.712;2022-08-21T15:50:20;9.15;;;2.80;;
42104;SDS011;61464;51.472;5.712;2022-08-21T15:52:47;9.63;;;2.65;;
42104;SDS011;61464;51.472;5.712;2022-08-21T15:55:13;6.95;;;2.53;;
42104;SDS011;61464;51.472;5.712;2022-08-21T15:57:43;7.35;;;2.88;;
42104;SDS011;61464;51.472;5.712;2022-08-21T16:00:13;7.55;;;2.35;;
42104;SDS011;61464;51.472;5.712;2022-08-21T16:02:48;11.00;;;2.40;;
42104;SDS011;61464;51.472;5.712;2022-08-21T16:05:18;7.90;;;1.85;;
42104;SDS011;61464;51.472;5.712;2022-08-21T16:07:46;12.45;;;2.53;;
42104;SDS011;61464;51.472;5.712;2022-08-21T16:10:14;9.23;;;2.45;;
42104;SDS011;61464;51.472;5.712;2022-08-21T16:12:44;9.40;;;2.20;;
42104;SDS011;61464;51.472;5.712;2022-08-21T16:15:19;6.03;;;2.17;;
42104;SDS011;61464;51.472;5.712;2022-08-21T16:17:46;7.53;;;2.10;;
42104;SDS011;61464;51.472;5.712;2022-08-21T16:20:15;8.93;;;2.05;;
42104;SDS011;61464;51.472;5.712;2022-08-21T16:22:45;11.38;;;2.13;;
42104;SDS011;61464;51.472;5.712;2022-08-21T16:25:12;6.45;;;2.35;;
42104;SDS011;61464;51.472;5.712;2022-08-21T16:27:40;10.32;;;2.22;;
42104;SDS011;61464;51.472;5.712;2022-08-21T16:30:10;7.40;;;2.17;;
42104;SDS011;61464;51.472;5.712;2022-08-21T16:32:36;10.32;;;2.10;;